sensor_id;sensor_type;location;lat;lon;timestamp;P1;durP1;ratioP1;P2;durP2;ratioP2
62153;SDS011;48140;45.486;9.226;2023-04-03T01:04:00;9.35;;;4.50;;
62153;SDS011;48140;45.486;9.226;2023-04-03T01:06:28;10.57;;;4.72;;
62153;SDS011;48140;45.486;9.226;2023-04-03T01:08:57;9.20;;;4.65;;
62153;SDS011;48140;45.486;9.226;2023-04-03T01:11:24;8.95;;;4.43;;
62153;SDS011;48140;45.486;9.226;2023-04-03T01:13:51;9.82;;;4.65;;
62153;SDS011;48140;45.486;9.226;2023-04-03T01:16:17;8.18;;;4.60;;
62153;SDS011;48140;45.486;9.226;2023-04-03T01:18:43;5.88;;;3.78;;
62153;SDS011;48140;45.486;9.226;2023-04-03T01:23:53;7.10;;;4.03;;
62153;SDS011;48140;45.486;9.226;2023-04-03T01:26:21;10.85;;;4.70;;
62153;SDS011;48140;45.486;9.226;2023-04-03T01:28:47;6.28;;;4.07;;
62153;SDS011;48140;45.486;9.226;2023-04-03T01:33:49;7.40;;;4.13;;
62153;SDS011;48140;45.486;9.226;2023-04-03T01:36:18;7.95;;;4.07;;
62153;SDS011;48140;45.486;9.226;2023-04-03T01:38:46;9.57;;;4.55;;
62153;SDS011;48140;45.486;9.226;2023-04-03T01:41:12;6.20;;;4.00;;
62153;SDS011;48140;45.486;9.226;2023-04-03T01:43:38;9.52;;;4.43;;
62153;SDS011;48140;45.486;9.226;2023-04-03T01:46:03;6.70;;;3.97;;
62153;SDS011;48140;45.486;9.226;2023-04-03T01:48:29;9.30;;;4.00;;
62153;SDS011;48140;45.486;9.226;2023-04-03T01:50:55;7.18;;;3.85;;
62153;SDS011;48140;45.486;9.226;2023-04-03T01:53:20;9.18;;;4.43;;
62153;SDS011;48140;45.486;9.226;2023-04-03T01:55:46;6.35;;;3.90;;
62153;SDS011;48140;45.486;9.226;2023-04-03T01:58:13;6.72;;;3.97;;
62153;SDS011;48140;45.486;9.226;2023-04-03T02:00:38;10.10;;;3.97;;
62153;SDS011;48140;45.486;9.226;2023-04-03T02:03:04;8.43;;;4.05;;
62153;SDS011;48140;45.486;9.226;2023-04-03T02:05:29;6.57;;;4.00;;
62153;SDS011;48140;45.486;9.226;2023-04-03T02:07:55;6.82;;;3.65;;
62153;SDS011;48140;45.486;9.226;2023-04-03T02:10:21;9.18;;;3.75;;
62153;SDS011;48140;45.486;9.226;2023-04-03T02:12:46;6.57;;;3.95;;
62153;SDS011;48140;45.486;9.226;2023-04-03T02:15:12;7.85;;;3.92;;
62153;SDS011;48140;45.486;9.226;2023-04-03T02:17:38;8.60;;;3.97;;
62153;SDS011;48140;45.486;9.226;2023-04-03T02:20:03;9.90;;;3.80;;
62153;SDS011;48140;45.486;9.226;2023-04-03T02:22:29;8.95;;;3.97;;
62153;SDS011;48140;45.486;9.226;2023-04-03T02:24:55;7.53;;;3.55;;
62153;SDS011;48140;45.486;9.226;2023-04-03T02:27:21;7.47;;;3.88;;
62153;SDS011;48140;45.486;9.226;2023-04-03T02:29:46;8.75;;;4.10;;
62153;SDS011;48140;45.486;9.226;2023-04-03T02:32:12;5.38;;;3.40;;
62153;SDS011;48140;45.486;9.226;2023-04-03T02:34:37;6.28;;;4.07;;
62153;SDS011;48140;45.486;9.226;2023-04-03T02:37:03;6.95;;;3.80;;
62153;SDS011;48140;45.486;9.226;2023-04-03T02:39:30;6.13;;;3.92;;
62153;SDS011;48140;45.486;9.226;2023-04-03T02:41:55;10.05;;;3.90;;
62153;SDS011;48140;45.486;9.226;2023-04-03T02:44:21;6.82;;;3.70;;
62153;SDS011;48140;45.486;9.226;2023-04-03T02:46:48;7.45;;;3.85;;
62153;SDS011;48140;45.486;9.226;2023-04-03T02:49:14;9.50;;;4.00;;
62153;SDS011;48140;45.486;9.226;2023-04-03T02:51:40;7.53;;;3.75;;
62153;SDS011;48140;45.486;9.226;2023-04-03T02:54:06;7.13;;;3.95;;
62153;SDS011;48140;45.486;9.226;2023-04-03T02:56:32;10.75;;;3.92;;
62153;SDS011;48140;45.486;9.226;2023-04-03T02:58:58;5.13;;;3.50;;
62153;SDS011;48140;45.486;9.226;2023-04-03T03:01:23;6.18;;;3.60;;
62153;SDS011;48140;45.486;9.226;2023-04-03T03:03:49;6.47;;;4.00;;
62153;SDS011;48140;45.486;9.226;2023-04-03T03:06:15;5.93;;;3.55;;
62153;SDS011;48140;45.486;9.226;2023-04-03T03:08:42;6.03;;;3.35;;
62153;SDS011;48140;45.486;9.226;2023-04-03T03:11:08;8.00;;;3.75;;
62153;SDS011;48140;45.486;9.226;2023-04-03T03:13:34;9.27;;;4.03;;
62153;SDS011;48140;45.486;9.226;2023-04-03T03:16:00;7.75;;;4.22;;
62153;SDS011;48140;45.486;9.226;2023-04-03T03:18:27;5.13;;;3.38;;
62153;SDS011;48140;45.486;9.226;2023-04-03T03:20:53;7.68;;;4.10;;
62153;SDS011;48140;45.486;9.226;2023-04-03T03:23:20;11.23;;;4.32;;
62153;SDS011;48140;45.486;9.226;2023-04-03T03:25:47;7.60;;;4.00;;
62153;SDS011;48140;45.486;9.226;2023-04-03T03:28:12;7.82;;;3.70;;
62153;SDS011;48140;45.486;9.226;2023-04-03T03:30:38;10.80;;;3.92;;
62153;SDS011;48140;45.486;9.226;2023-04-03T03:33:04;7.55;;;4.10;;
62153;SDS011;48140;45.486;9.226;2023-04-03T03:35:30;7.15;;;4.05;;
62153;SDS011;48140;45.486;9.226;2023-04-03T03:37:55;6.60;;;3.90;;
62153;SDS011;48140;45.486;9.226;2023-04-03T03:40:21;7.63;;;4.18;;
62153;SDS011;48140;45.486;9.226;2023-04-03T03:42:46;6.65;;;3.65;;
62153;SDS011;48140;45.486;9.226;2023-04-03T03:45:12;6.93;;;4.03;;
62153;SDS011;48140;45.486;9.226;2023-04-03T03:47:38;8.07;;;4.53;;
62153;SDS011;48140;45.486;9.226;2023-04-03T03:50:05;10.18;;;4.22;;
62153;SDS011;48140;45.486;9.226;2023-04-03T03:52:31;8.85;;;4.47;;
62153;SDS011;48140;45.486;9.226;2023-04-03T03:54:56;6.80;;;3.97;;
62153;SDS011;48140;45.486;9.226;2023-04-03T03:57:22;8.48;;;4.22;;
62153;SDS011;48140;45.486;9.226;2023-04-03T03:59:48;11.25;;;3.88;;
62153;SDS011;48140;45.486;9.226;2023-04-03T04:02:14;10.95;;;4.18;;
62153;SDS011;48140;45.486;9.226;2023-04-03T04:04:39;10.52;;;3.85;;
62153;SDS011;48140;45.486;9.226;2023-04-03T04:07:05;8.38;;;4.22;;
62153;SDS011;48140;45.486;9.226;2023-04-03T04:09:31;6.75;;;4.28;;
62153;SDS011;48140;45.486;9.226;2023-04-03T04:11:57;9.45;;;4.50;;
62153;SDS011;48140;45.486;9.226;2023-04-03T04:14:22;8.57;;;4.80;;
62153;SDS011;48140;45.486;9.226;2023-04-03T04:16:48;8.45;;;4.82;;
62153;SDS011;48140;45.486;9.226;2023-04-03T04:19:14;8.27;;;4.72;;
62153;SDS011;48140;45.486;9.226;2023-04-03T04:21:40;9.25;;;4.10;;
62153;SDS011;48140;45.486;9.226;2023-04-03T04:24:06;9.63;;;4.25;;
62153;SDS011;48140;45.486;9.226;2023-04-03T04:26:33;10.32;;;4.45;;
62153;SDS011;48140;45.486;9.226;2023-04-03T04:28:59;7.63;;;4.22;;
62153;SDS011;48140;45.486;9.226;2023-04-03T04:31:25;9.07;;;4.50;;
62153;SDS011;48140;45.486;9.226;2023-04-03T04:33:50;7.82;;;4.45;;
62153;SDS011;48140;45.486;9.226;2023-04-03T04:36:16;8.10;;;4.03;;
62153;SDS011;48140;45.486;9.226;2023-04-03T04:38:43;6.60;;;3.97;;
62153;SDS011;48140;45.486;9.226;2023-04-03T04:41:09;9.48;;;4.78;;
62153;SDS011;48140;45.486;9.226;2023-04-03T04:43:35;7.60;;;4.40;;
62153;SDS011;48140;45.486;9.226;2023-04-03T04:46:04;7.75;;;4.30;;
62153;SDS011;48140;45.486;9.226;2023-04-03T04:48:32;8.25;;;4.45;;
62153;SDS011;48140;45.486;9.226;2023-04-03T04:50:58;9.65;;;4.10;;
62153;SDS011;48140;45.486;9.226;2023-04-03T04:53:24;9.40;;;4.40;;
62153;SDS011;48140;45.486;9.226;2023-04-03T04:55:50;7.82;;;4.10;;
62153;SDS011;48140;45.486;9.226;2023-04-03T04:58:16;8.38;;;4.25;;
62153;SDS011;48140;45.486;9.226;2023-04-03T05:00:42;6.45;;;4.05;;
62153;SDS011;48140;45.486;9.226;2023-04-03T05:03:08;8.77;;;4.50;;
62153;SDS011;48140;45.486;9.226;2023-04-03T05:05:33;7.10;;;4.00;;
62153;SDS011;48140;45.486;9.226;2023-04-03T05:08:00;7.47;;;4.07;;
62153;SDS011;48140;45.486;9.226;2023-04-03T05:10:27;7.45;;;4.18;;
62153;SDS011;48140;45.486;9.226;2023-04-03T05:12:52;6.22;;;4.18;;
62153;SDS011;48140;45.486;9.226;2023-04-03T05:15:18;6.85;;;3.70;;
62153;SDS011;48140;45.486;9.226;2023-04-03T05:17:43;11.02;;;3.80;;
62153;SDS011;48140;45.486;9.226;2023-04-03T05:20:09;9.20;;;4.47;;
62153;SDS011;48140;45.486;9.226;2023-04-03T05:22:35;8.05;;;4.13;;
62153;SDS011;48140;45.486;9.226;2023-04-03T05:25:01;9.68;;;4.18;;
62153;SDS011;48140;45.486;9.226;2023-04-03T05:27:27;7.60;;;4.85;;
62153;SDS011;48140;45.486;9.226;2023-04-03T05:29:53;7.47;;;4.22;;
62153;SDS011;48140;45.486;9.226;2023-04-03T05:32:20;8.70;;;4.53;;
62153;SDS011;48140;45.486;9.226;2023-04-03T05:34:46;6.82;;;4.05;;
62153;SDS011;48140;45.486;9.226;2023-04-03T05:37:12;9.32;;;4.30;;
62153;SDS011;48140;45.486;9.226;2023-04-03T05:39:39;7.22;;;4.35;;
62153;SDS011;48140;45.486;9.226;2023-04-03T05:42:06;12.30;;;4.63;;
62153;SDS011;48140;45.486;9.226;2023-04-03T05:44:32;7.78;;;4.32;;
62153;SDS011;48140;45.486;9.226;2023-04-03T05:46:57;10.30;;;4.53;;
62153;SDS011;48140;45.486;9.226;2023-04-03T05:49:23;10.30;;;4.63;;
62153;SDS011;48140;45.486;9.226;2023-04-03T05:51:49;8.90;;;4.60;;
62153;SDS011;48140;45.486;9.226;2023-04-03T05:54:20;9.82;;;4.85;;
62153;SDS011;48140;45.486;9.226;2023-04-03T05:56:49;14.52;;;4.95;;
62153;SDS011;48140;45.486;9.226;2023-04-03T05:59:15;12.75;;;4.53;;
62153;SDS011;48140;45.486;9.226;2023-04-03T06:01:42;14.02;;;5.28;;
62153;SDS011;48140;45.486;9.226;2023-04-03T06:04:08;12.77;;;5.35;;
62153;SDS011;48140;45.486;9.226;2023-04-03T06:09:16;10.70;;;5.03;;
62153;SDS011;48140;45.486;9.226;2023-04-03T06:11:43;8.48;;;4.68;;
62153;SDS011;48140;45.486;9.226;2023-04-03T06:14:09;10.23;;;4.80;;
62153;SDS011;48140;45.486;9.226;2023-04-03T06:16:35;14.55;;;4.95;;
62153;SDS011;48140;45.486;9.226;2023-04-03T06:19:02;17.48;;;5.30;;
62153;SDS011;48140;45.486;9.226;2023-04-03T06:21:29;17.02;;;5.53;;
62153;SDS011;48140;45.486;9.226;2023-04-03T06:23:55;26.45;;;6.15;;
62153;SDS011;48140;45.486;9.226;2023-04-03T06:26:20;15.10;;;4.60;;
62153;SDS011;48140;45.486;9.226;2023-04-03T06:28:47;22.33;;;4.88;;
62153;SDS011;48140;45.486;9.226;2023-04-03T06:31:13;10.48;;;5.00;;
62153;SDS011;48140;45.486;9.226;2023-04-03T06:33:39;11.75;;;4.60;;
62153;SDS011;48140;45.486;9.226;2023-04-03T06:36:05;9.13;;;4.15;;
62153;SDS011;48140;45.486;9.226;2023-04-03T06:38:32;15.00;;;4.45;;
62153;SDS011;48140;45.486;9.226;2023-04-03T06:40:58;11.10;;;4.20;;
62153;SDS011;48140;45.486;9.226;2023-04-03T06:43:24;11.93;;;4.00;;
62153;SDS011;48140;45.486;9.226;2023-04-03T06:45:50;8.30;;;3.20;;
62153;SDS011;48140;45.486;9.226;2023-04-03T06:48:15;9.50;;;4.00;;
62153;SDS011;48140;45.486;9.226;2023-04-03T06:50:41;9.32;;;3.45;;
62153;SDS011;48140;45.486;9.226;2023-04-03T06:53:07;12.20;;;4.20;;
62153;SDS011;48140;45.486;9.226;2023-04-03T06:55:33;9.48;;;3.60;;
62153;SDS011;48140;45.486;9.226;2023-04-03T06:57:59;7.63;;;3.60;;
62153;SDS011;48140;45.486;9.226;2023-04-03T07:00:25;5.07;;;3.45;;
62153;SDS011;48140;45.486;9.226;2023-04-03T07:02:51;7.05;;;3.35;;
62153;SDS011;48140;45.486;9.226;2023-04-03T07:05:16;7.43;;;3.40;;
62153;SDS011;48140;45.486;9.226;2023-04-03T07:07:43;10.00;;;3.50;;
62153;SDS011;48140;45.486;9.226;2023-04-03T07:10:09;7.18;;;3.35;;
62153;SDS011;48140;45.486;9.226;2023-04-03T07:12:36;11.27;;;3.17;;
62153;SDS011;48140;45.486;9.226;2023-04-03T07:15:02;9.18;;;3.58;;
62153;SDS011;48140;45.486;9.226;2023-04-03T07:17:29;6.28;;;3.20;;
62153;SDS011;48140;45.486;9.226;2023-04-03T07:19:56;5.82;;;3.17;;
62153;SDS011;48140;45.486;9.226;2023-04-03T07:22:21;5.95;;;3.20;;
62153;SDS011;48140;45.486;9.226;2023-04-03T07:24:47;5.63;;;3.28;;
62153;SDS011;48140;45.486;9.226;2023-04-03T07:27:13;5.95;;;3.67;;
62153;SDS011;48140;45.486;9.226;2023-04-03T07:29:38;5.35;;;2.80;;
62153;SDS011;48140;45.486;9.226;2023-04-03T07:32:04;5.13;;;2.92;;
62153;SDS011;48140;45.486;9.226;2023-04-03T07:34:31;7.60;;;3.42;;
62153;SDS011;48140;45.486;9.226;2023-04-03T07:36:57;11.70;;;3.78;;
62153;SDS011;48140;45.486;9.226;2023-04-03T07:39:24;13.10;;;6.18;;
62153;SDS011;48140;45.486;9.226;2023-04-03T07:41:50;12.00;;;3.83;;
62153;SDS011;48140;45.486;9.226;2023-04-03T07:44:16;7.15;;;3.40;;
62153;SDS011;48140;45.486;9.226;2023-04-03T07:46:42;6.10;;;3.38;;
62153;SDS011;48140;45.486;9.226;2023-04-03T07:49:08;7.18;;;3.20;;
62153;SDS011;48140;45.486;9.226;2023-04-03T07:51:33;8.48;;;3.80;;
62153;SDS011;48140;45.486;9.226;2023-04-03T07:53:59;5.20;;;3.40;;
62153;SDS011;48140;45.486;9.226;2023-04-03T07:56:25;7.35;;;3.58;;
62153;SDS011;48140;45.486;9.226;2023-04-03T07:58:50;5.85;;;3.45;;
62153;SDS011;48140;45.486;9.226;2023-04-03T08:01:16;18.55;;;3.55;;
62153;SDS011;48140;45.486;9.226;2023-04-03T08:03:42;6.95;;;3.30;;
62153;SDS011;48140;45.486;9.226;2023-04-03T08:06:08;6.25;;;2.88;;
62153;SDS011;48140;45.486;9.226;2023-04-03T08:08:34;8.85;;;3.80;;
62153;SDS011;48140;45.486;9.226;2023-04-03T08:11:00;12.93;;;3.38;;
62153;SDS011;48140;45.486;9.226;2023-04-03T08:13:27;6.63;;;3.55;;
62153;SDS011;48140;45.486;9.226;2023-04-03T08:15:54;7.18;;;4.13;;
62153;SDS011;48140;45.486;9.226;2023-04-03T08:18:22;8.70;;;3.15;;
62153;SDS011;48140;45.486;9.226;2023-04-03T08:20:49;6.28;;;3.45;;
62153;SDS011;48140;45.486;9.226;2023-04-03T08:23:15;8.48;;;3.38;;
62153;SDS011;48140;45.486;9.226;2023-04-03T08:25:42;7.88;;;2.95;;
62153;SDS011;48140;45.486;9.226;2023-04-03T08:28:09;6.22;;;3.22;;
62153;SDS011;48140;45.486;9.226;2023-04-03T08:30:38;5.70;;;3.05;;
62153;SDS011;48140;45.486;9.226;2023-04-03T08:33:04;5.60;;;3.10;;
62153;SDS011;48140;45.486;9.226;2023-04-03T08:35:31;6.47;;;3.05;;
62153;SDS011;48140;45.486;9.226;2023-04-03T08:37:57;4.28;;;2.90;;
62153;SDS011;48140;45.486;9.226;2023-04-03T08:40:22;6.30;;;3.38;;
62153;SDS011;48140;45.486;9.226;2023-04-03T08:42:54;5.70;;;2.90;;
62153;SDS011;48140;45.486;9.226;2023-04-03T08:48:06;6.07;;;3.22;;
62153;SDS011;48140;45.486;9.226;2023-04-03T08:50:38;5.68;;;3.20;;
62153;SDS011;48140;45.486;9.226;2023-04-03T08:53:06;6.47;;;3.53;;
62153;SDS011;48140;45.486;9.226;2023-04-03T08:55:49;4.40;;;2.80;;
62153;SDS011;48140;45.486;9.226;2023-04-03T08:58:19;5.88;;;2.97;;
62153;SDS011;48140;45.486;9.226;2023-04-03T09:01:00;10.80;;;3.40;;
62153;SDS011;48140;45.486;9.226;2023-04-03T09:03:30;4.53;;;2.83;;
62153;SDS011;48140;45.486;9.226;2023-04-03T09:08:30;4.03;;;2.75;;
62153;SDS011;48140;45.486;9.226;2023-04-03T09:19:02;7.88;;;2.97;;
62153;SDS011;48140;45.486;9.226;2023-04-03T09:21:38;5.22;;;3.05;;
62153;SDS011;48140;45.486;9.226;2023-04-03T09:24:07;5.70;;;2.80;;
62153;SDS011;48140;45.486;9.226;2023-04-03T09:26:36;5.47;;;3.15;;
62153;SDS011;48140;45.486;9.226;2023-04-03T09:29:10;4.82;;;3.10;;
62153;SDS011;48140;45.486;9.226;2023-04-03T09:31:42;4.90;;;2.85;;
62153;SDS011;48140;45.486;9.226;2023-04-03T09:34:23;7.38;;;3.00;;
62153;SDS011;48140;45.486;9.226;2023-04-03T09:36:56;4.70;;;2.67;;
62153;SDS011;48140;45.486;9.226;2023-04-03T09:39:27;5.30;;;2.90;;
62153;SDS011;48140;45.486;9.226;2023-04-03T09:42:04;4.72;;;3.33;;
62153;SDS011;48140;45.486;9.226;2023-04-03T09:44:44;6.13;;;2.90;;
62153;SDS011;48140;45.486;9.226;2023-04-03T09:47:26;10.05;;;3.08;;
62153;SDS011;48140;45.486;9.226;2023-04-03T09:52:54;4.43;;;2.50;;
62153;SDS011;48140;45.486;9.226;2023-04-03T09:55:21;4.63;;;2.45;;
62153;SDS011;48140;45.486;9.226;2023-04-03T09:57:52;5.38;;;2.83;;
62153;SDS011;48140;45.486;9.226;2023-04-03T10:00:23;4.75;;;2.80;;
62153;SDS011;48140;45.486;9.226;2023-04-03T10:02:55;6.82;;;2.88;;
62153;SDS011;48140;45.486;9.226;2023-04-03T10:07:52;6.32;;;2.70;;
62153;SDS011;48140;45.486;9.226;2023-04-03T10:10:31;3.50;;;2.45;;
62153;SDS011;48140;45.486;9.226;2023-04-03T10:13:03;5.47;;;2.67;;
62153;SDS011;48140;45.486;9.226;2023-04-03T10:15:39;4.43;;;2.60;;
62153;SDS011;48140;45.486;9.226;2023-04-03T10:20:47;4.93;;;2.90;;
62153;SDS011;48140;45.486;9.226;2023-04-03T10:23:17;4.45;;;2.83;;
62153;SDS011;48140;45.486;9.226;2023-04-03T10:25:54;4.45;;;2.60;;
62153;SDS011;48140;45.486;9.226;2023-04-03T10:31:04;7.78;;;2.50;;
62153;SDS011;48140;45.486;9.226;2023-04-03T10:36:38;5.68;;;2.40;;
62153;SDS011;48140;45.486;9.226;2023-04-03T10:48:11;4.57;;;2.40;;
62153;SDS011;48140;45.486;9.226;2023-04-03T10:59:38;3.45;;;2.10;;
62153;SDS011;48140;45.486;9.226;2023-04-03T11:02:01;3.88;;;2.08;;
62153;SDS011;48140;45.486;9.226;2023-04-03T11:04:34;3.60;;;2.35;;
62153;SDS011;48140;45.486;9.226;2023-04-03T11:07:17;6.57;;;2.20;;
62153;SDS011;48140;45.486;9.226;2023-04-03T11:09:47;4.57;;;2.20;;
62153;SDS011;48140;45.486;9.226;2023-04-03T11:12:18;2.22;;;1.92;;
62153;SDS011;48140;45.486;9.226;2023-04-03T11:14:52;2.65;;;1.88;;
62153;SDS011;48140;45.486;9.226;2023-04-03T11:22:30;8.52;;;2.10;;
62153;SDS011;48140;45.486;9.226;2023-04-03T11:30:27;3.95;;;2.20;;
62153;SDS011;48140;45.486;9.226;2023-04-03T11:35:59;2.65;;;1.83;;
62153;SDS011;48140;45.486;9.226;2023-04-03T11:38:32;4.63;;;2.17;;
62153;SDS011;48140;45.486;9.226;2023-04-03T11:41:01;3.38;;;1.90;;
62153;SDS011;48140;45.486;9.226;2023-04-03T11:43:30;3.45;;;2.20;;
62153;SDS011;48140;45.486;9.226;2023-04-03T11:45:58;4.35;;;2.08;;
62153;SDS011;48140;45.486;9.226;2023-04-03T11:50:56;4.68;;;1.90;;
62153;SDS011;48140;45.486;9.226;2023-04-03T11:53:43;3.88;;;1.88;;
62153;SDS011;48140;45.486;9.226;2023-04-03T12:01:47;3.47;;;2.05;;
62153;SDS011;48140;45.486;9.226;2023-04-03T12:04:36;2.85;;;1.77;;
62153;SDS011;48140;45.486;9.226;2023-04-03T12:07:11;3.28;;;2.10;;
62153;SDS011;48140;45.486;9.226;2023-04-03T12:12:27;4.28;;;2.03;;
62153;SDS011;48140;45.486;9.226;2023-04-03T12:15:11;3.75;;;1.83;;
62153;SDS011;48140;45.486;9.226;2023-04-03T12:17:48;4.05;;;1.80;;
62153;SDS011;48140;45.486;9.226;2023-04-03T12:21:15;2.10;;;1.67;;
62153;SDS011;48140;45.486;9.226;2023-04-03T12:23:28;4.78;;;1.90;;
62153;SDS011;48140;45.486;9.226;2023-04-03T12:26:01;3.88;;;1.80;;
62153;SDS011;48140;45.486;9.226;2023-04-03T12:28:44;3.90;;;2.00;;
62153;SDS011;48140;45.486;9.226;2023-04-03T12:31:11;3.97;;;1.80;;
62153;SDS011;48140;45.486;9.226;2023-04-03T12:33:42;2.70;;;1.92;;
62153;SDS011;48140;45.486;9.226;2023-04-03T12:36:30;3.30;;;1.70;;
62153;SDS011;48140;45.486;9.226;2023-04-03T12:41:56;2.45;;;1.60;;
62153;SDS011;48140;45.486;9.226;2023-04-03T12:45:02;2.90;;;1.85;;
62153;SDS011;48140;45.486;9.226;2023-04-03T12:47:48;2.55;;;1.67;;
62153;SDS011;48140;45.486;9.226;2023-04-03T12:50:18;4.30;;;1.80;;
62153;SDS011;48140;45.486;9.226;2023-04-03T12:52:56;2.05;;;1.50;;
62153;SDS011;48140;45.486;9.226;2023-04-03T12:55:56;3.95;;;1.70;;
62153;SDS011;48140;45.486;9.226;2023-04-03T12:58:42;2.47;;;1.80;;
62153;SDS011;48140;45.486;9.226;2023-04-03T13:01:11;2.63;;;1.60;;
62153;SDS011;48140;45.486;9.226;2023-04-03T13:03:40;2.65;;;1.50;;
62153;SDS011;48140;45.486;9.226;2023-04-03T13:06:26;4.55;;;1.80;;
62153;SDS011;48140;45.486;9.226;2023-04-03T13:08:57;3.15;;;1.60;;
62153;SDS011;48140;45.486;9.226;2023-04-03T13:11:38;2.10;;;1.52;;
62153;SDS011;48140;45.486;9.226;2023-04-03T13:14:40;1.50;;;1.33;;
62153;SDS011;48140;45.486;9.226;2023-04-03T13:16:59;3.60;;;1.35;;
62153;SDS011;48140;45.486;9.226;2023-04-03T13:19:41;3.35;;;1.50;;
62153;SDS011;48140;45.486;9.226;2023-04-03T13:22:21;2.05;;;1.60;;
62153;SDS011;48140;45.486;9.226;2023-04-03T13:24:49;1.92;;;1.50;;
62153;SDS011;48140;45.486;9.226;2023-04-03T13:27:16;3.05;;;1.67;;
62153;SDS011;48140;45.486;9.226;2023-04-03T13:29:43;1.70;;;1.35;;
62153;SDS011;48140;45.486;9.226;2023-04-03T13:32:17;5.47;;;1.50;;
62153;SDS011;48140;45.486;9.226;2023-04-03T13:34:45;2.00;;;1.40;;
62153;SDS011;48140;45.486;9.226;2023-04-03T13:37:19;3.78;;;1.70;;
62153;SDS011;48140;45.486;9.226;2023-04-03T13:39:56;2.97;;;1.50;;
62153;SDS011;48140;45.486;9.226;2023-04-03T13:42:31;1.75;;;1.38;;
62153;SDS011;48140;45.486;9.226;2023-04-03T13:47:39;2.88;;;1.83;;
62153;SDS011;48140;45.486;9.226;2023-04-03T13:50:15;4.75;;;1.83;;
62153;SDS011;48140;45.486;9.226;2023-04-03T13:52:45;2.22;;;1.38;;
62153;SDS011;48140;45.486;9.226;2023-04-03T13:57:58;2.08;;;1.48;;
62153;SDS011;48140;45.486;9.226;2023-04-03T14:03:20;2.95;;;1.85;;
62153;SDS011;48140;45.486;9.226;2023-04-03T14:06:05;6.40;;;1.75;;
62153;SDS011;48140;45.486;9.226;2023-04-03T14:08:33;2.78;;;1.58;;
62153;SDS011;48140;45.486;9.226;2023-04-03T14:10:58;3.00;;;1.52;;
62153;SDS011;48140;45.486;9.226;2023-04-03T14:13:25;1.98;;;1.50;;
62153;SDS011;48140;45.486;9.226;2023-04-03T14:15:50;2.03;;;1.50;;
62153;SDS011;48140;45.486;9.226;2023-04-03T14:18:17;5.00;;;1.77;;
62153;SDS011;48140;45.486;9.226;2023-04-03T14:20:45;1.75;;;1.30;;
62153;SDS011;48140;45.486;9.226;2023-04-03T14:23:11;2.45;;;1.27;;
62153;SDS011;48140;45.486;9.226;2023-04-03T14:25:37;2.53;;;1.50;;
62153;SDS011;48140;45.486;9.226;2023-04-03T14:28:12;2.20;;;1.45;;
62153;SDS011;48140;45.486;9.226;2023-04-03T14:30:46;3.77;;;1.70;;
62153;SDS011;48140;45.486;9.226;2023-04-03T14:33:16;2.83;;;1.60;;
62153;SDS011;48140;45.486;9.226;2023-04-03T14:35:43;2.55;;;1.50;;
62153;SDS011;48140;45.486;9.226;2023-04-03T14:38:20;2.85;;;1.75;;
62153;SDS011;48140;45.486;9.226;2023-04-03T14:40:50;3.15;;;1.77;;
62153;SDS011;48140;45.486;9.226;2023-04-03T14:43:17;2.25;;;1.50;;
62153;SDS011;48140;45.486;9.226;2023-04-03T14:45:43;4.97;;;1.65;;
62153;SDS011;48140;45.486;9.226;2023-04-03T14:48:10;2.35;;;1.70;;
62153;SDS011;48140;45.486;9.226;2023-04-03T14:50:49;2.45;;;1.60;;
62153;SDS011;48140;45.486;9.226;2023-04-03T14:53:16;2.20;;;1.70;;
62153;SDS011;48140;45.486;9.226;2023-04-03T14:55:46;3.13;;;1.60;;
62153;SDS011;48140;45.486;9.226;2023-04-03T14:58:13;7.40;;;1.60;;
62153;SDS011;48140;45.486;9.226;2023-04-03T15:00:40;4.80;;;1.40;;
62153;SDS011;48140;45.486;9.226;2023-04-03T15:03:09;2.03;;;1.30;;
62153;SDS011;48140;45.486;9.226;2023-04-03T15:05:42;5.68;;;1.75;;
62153;SDS011;48140;45.486;9.226;2023-04-03T15:08:30;4.57;;;1.70;;
62153;SDS011;48140;45.486;9.226;2023-04-03T15:10:55;4.32;;;2.15;;
62153;SDS011;48140;45.486;9.226;2023-04-03T15:13:21;14.25;;;3.45;;
62153;SDS011;48140;45.486;9.226;2023-04-03T15:15:48;4.82;;;1.88;;
62153;SDS011;48140;45.486;9.226;2023-04-03T15:18:18;3.53;;;1.70;;
62153;SDS011;48140;45.486;9.226;2023-04-03T15:20:46;7.00;;;1.73;;
62153;SDS011;48140;45.486;9.226;2023-04-03T15:23:13;2.15;;;1.65;;
62153;SDS011;48140;45.486;9.226;2023-04-03T15:25:41;6.07;;;1.67;;
62153;SDS011;48140;45.486;9.226;2023-04-03T15:30:50;6.18;;;2.05;;
62153;SDS011;48140;45.486;9.226;2023-04-03T15:33:17;3.17;;;1.92;;
62153;SDS011;48140;45.486;9.226;2023-04-03T15:35:44;2.65;;;1.60;;
62153;SDS011;48140;45.486;9.226;2023-04-03T15:38:09;2.60;;;1.80;;
62153;SDS011;48140;45.486;9.226;2023-04-03T15:40:35;3.25;;;1.77;;
62153;SDS011;48140;45.486;9.226;2023-04-03T15:43:01;10.25;;;2.00;;
62153;SDS011;48140;45.486;9.226;2023-04-03T15:45:30;3.03;;;1.85;;
62153;SDS011;48140;45.486;9.226;2023-04-03T15:47:56;6.28;;;1.60;;
62153;SDS011;48140;45.486;9.226;2023-04-03T15:50:22;4.38;;;1.75;;
62153;SDS011;48140;45.486;9.226;2023-04-03T15:52:49;5.15;;;2.00;;
62153;SDS011;48140;45.486;9.226;2023-04-03T15:55:19;4.93;;;1.85;;
62153;SDS011;48140;45.486;9.226;2023-04-03T15:57:49;2.55;;;1.67;;
62153;SDS011;48140;45.486;9.226;2023-04-03T16:00:15;3.70;;;1.90;;
62153;SDS011;48140;45.486;9.226;2023-04-03T16:02:41;3.05;;;1.60;;
62153;SDS011;48140;45.486;9.226;2023-04-03T16:05:10;3.13;;;1.98;;
62153;SDS011;48140;45.486;9.226;2023-04-03T16:07:37;5.57;;;1.98;;
62153;SDS011;48140;45.486;9.226;2023-04-03T16:10:04;5.68;;;2.38;;
62153;SDS011;48140;45.486;9.226;2023-04-03T16:12:31;10.60;;;2.00;;
62153;SDS011;48140;45.486;9.226;2023-04-03T16:14:57;3.20;;;1.88;;
62153;SDS011;48140;45.486;9.226;2023-04-03T16:17:25;7.55;;;2.10;;
62153;SDS011;48140;45.486;9.226;2023-04-03T16:19:51;3.17;;;1.63;;
62153;SDS011;48140;45.486;9.226;2023-04-03T16:22:18;4.32;;;1.80;;
62153;SDS011;48140;45.486;9.226;2023-04-03T16:24:44;5.10;;;1.73;;
62153;SDS011;48140;45.486;9.226;2023-04-03T16:27:10;3.38;;;1.77;;
62153;SDS011;48140;45.486;9.226;2023-04-03T16:29:35;4.88;;;1.70;;
62153;SDS011;48140;45.486;9.226;2023-04-03T16:32:01;3.63;;;2.05;;
62153;SDS011;48140;45.486;9.226;2023-04-03T16:34:28;3.90;;;1.77;;
62153;SDS011;48140;45.486;9.226;2023-04-03T16:36:55;2.92;;;1.77;;
62153;SDS011;48140;45.486;9.226;2023-04-03T16:39:21;4.07;;;1.63;;
62153;SDS011;48140;45.486;9.226;2023-04-03T16:41:47;4.35;;;1.70;;
62153;SDS011;48140;45.486;9.226;2023-04-03T16:44:12;5.43;;;1.90;;
62153;SDS011;48140;45.486;9.226;2023-04-03T16:46:38;5.07;;;1.52;;
62153;SDS011;48140;45.486;9.226;2023-04-03T16:49:04;3.42;;;1.70;;
62153;SDS011;48140;45.486;9.226;2023-04-03T16:51:29;2.65;;;1.70;;
62153;SDS011;48140;45.486;9.226;2023-04-03T16:53:56;4.28;;;1.83;;
62153;SDS011;48140;45.486;9.226;2023-04-03T16:56:22;3.88;;;1.80;;
62153;SDS011;48140;45.486;9.226;2023-04-03T16:58:48;3.35;;;1.88;;
62153;SDS011;48140;45.486;9.226;2023-04-03T17:01:17;6.93;;;1.98;;
62153;SDS011;48140;45.486;9.226;2023-04-03T17:03:44;4.88;;;2.05;;
62153;SDS011;48140;45.486;9.226;2023-04-03T17:06:11;4.00;;;1.50;;
62153;SDS011;48140;45.486;9.226;2023-04-03T17:08:45;3.80;;;1.70;;
62153;SDS011;48140;45.486;9.226;2023-04-03T17:11:11;2.83;;;1.70;;
62153;SDS011;48140;45.486;9.226;2023-04-03T17:13:37;3.80;;;1.75;;
62153;SDS011;48140;45.486;9.226;2023-04-03T17:16:04;3.53;;;1.70;;
62153;SDS011;48140;45.486;9.226;2023-04-03T17:18:33;3.15;;;1.60;;
62153;SDS011;48140;45.486;9.226;2023-04-03T17:21:00;3.50;;;1.70;;
62153;SDS011;48140;45.486;9.226;2023-04-03T17:23:26;3.85;;;2.05;;
62153;SDS011;48140;45.486;9.226;2023-04-03T17:25:53;2.08;;;1.50;;
62153;SDS011;48140;45.486;9.226;2023-04-03T17:28:20;4.00;;;1.60;;